Terminal Aerodrome Forecast
Issued by NWS

Home | Current Version | Previous Version | Text Only | Print | Product List | Glossary On
Versions: 1 2 3 4 5 6 7 8 9 10 11 12
000
FTAK31 PAFA 270532
TAFABT
TAF
PABT 270532Z 2706/2806 24006KT P6SM VCSH OVC035
     FM271000 VRB03KT P6SM SCT035 BKN120
     FM271500 VRB03KT P6SM SCT250=

USA.gov is the U.S. government's official web portal to all federal, state and local government web resources and services.